createdAt,value
2022-09-27T00:01:29.124Z,8.56
2022-09-27T00:04:30.567Z,8.61
2022-09-27T00:07:31.936Z,8.68
2022-09-27T00:10:33.397Z,8.68
2022-09-27T00:13:34.790Z,8.67
2022-09-27T00:16:36.655Z,8.67
2022-09-27T00:19:38.046Z,8.63
2022-09-27T00:22:39.437Z,8.61
2022-09-27T00:25:41.125Z,8.66
2022-09-27T00:28:42.561Z,8.63
2022-09-27T00:31:45.856Z,8.66
2022-09-27T00:34:47.394Z,8.62
2022-09-27T00:37:48.927Z,8.62
2022-09-27T00:40:50.793Z,8.62
2022-09-27T00:44:04.365Z,8.71
2022-09-27T00:47:05.683Z,8.70
2022-09-27T00:50:20.141Z,8.67
2022-09-27T00:53:29.321Z,8.69
2022-09-27T00:56:30.778Z,8.81
2022-09-27T00:59:40.743Z,8.81
2022-09-27T01:02:43.854Z,8.77
2022-09-27T01:05:45.284Z,8.74
2022-09-27T01:08:46.670Z,8.71
2022-09-27T01:12:06.734Z,8.78
2022-09-27T01:15:26.463Z,8.82
2022-09-27T01:18:31.116Z,8.74
2022-09-27T01:21:44.769Z,8.69
2022-09-27T01:24:46.095Z,8.63
2022-09-27T01:28:17.052Z,8.68
2022-09-27T01:31:21.249Z,8.70
2022-09-27T01:34:31.618Z,8.68
2022-09-27T01:37:41.237Z,8.70
2022-09-27T01:40:45.406Z,8.73
2022-09-27T01:43:55.499Z,8.67
2022-09-27T01:46:58.906Z,8.65
2022-09-27T01:50:04.827Z,8.60
2022-09-27T01:53:10.887Z,8.61
2022-09-27T01:56:13.995Z,8.56
2022-09-27T01:59:19.665Z,8.49
2022-09-27T02:02:22.373Z,8.45
2022-09-27T02:05:24.821Z,8.42
2022-09-27T02:08:42.582Z,8.35
2022-09-27T02:11:45.726Z,8.29
2022-09-27T02:14:49.507Z,8.29
2022-09-27T02:17:58.546Z,8.24
2022-09-27T02:21:00.507Z,8.22
2022-09-27T02:24:01.899Z,8.23
2022-09-27T02:27:23.908Z,8.20
2022-09-27T02:30:25.315Z,8.23
2022-09-27T02:33:28.200Z,8.21
2022-09-27T02:36:30.217Z,8.16
2022-09-27T02:39:31.614Z,8.21
2022-09-27T02:42:32.981Z,8.16
2022-09-27T02:45:41.847Z,8.09
2022-09-27T02:48:54.177Z,8.12
2022-09-27T02:52:13.883Z,8.12
2022-09-27T02:55:17.982Z,8.12
2022-09-27T02:58:33.765Z,8.15
2022-09-27T03:01:41.575Z,8.15
2022-09-27T03:04:44.642Z,8.16
2022-09-27T03:07:46.013Z,8.19
2022-09-27T03:10:47.415Z,8.17
2022-09-27T03:14:07.250Z,8.17
2022-09-27T03:17:09.682Z,8.21
2022-09-27T03:20:11.130Z,8.13
2022-09-27T03:23:12.488Z,8.11
2022-09-27T03:26:13.868Z,8.10
2022-09-27T03:29:15.654Z,7.99
2022-09-27T03:32:17.119Z,7.90
2022-09-27T03:35:18.492Z,7.93
2022-09-27T03:38:19.835Z,7.89
2022-09-27T03:41:21.231Z,7.86
2022-09-27T03:44:22.666Z,7.83
2022-09-27T03:47:24.047Z,7.80
2022-09-27T03:50:25.847Z,7.77
2022-09-27T03:53:27.235Z,7.77
2022-09-27T03:56:28.647Z,7.82
2022-09-27T03:59:30.091Z,7.80
2022-09-27T04:02:31.504Z,7.74
2022-09-27T04:05:32.932Z,7.79
2022-09-27T04:08:34.329Z,7.76
2022-09-27T04:11:35.705Z,7.81
2022-09-27T04:14:37.096Z,7.77
2022-09-27T04:17:38.882Z,7.76
2022-09-27T04:20:40.331Z,7.67
2022-09-27T04:23:41.758Z,7.62
2022-09-27T04:26:43.172Z,7.62
2022-09-27T04:29:45.919Z,7.59
2022-09-27T04:32:47.336Z,7.57
2022-09-27T04:36:07.282Z,7.52
2022-09-27T04:39:09.534Z,7.51
2022-09-27T04:42:10.974Z,7.51
2022-09-27T04:45:13.323Z,7.48
2022-09-27T04:48:14.708Z,7.47
2022-09-27T04:51:19.979Z,7.47
2022-09-27T04:54:21.609Z,7.42
2022-09-27T04:57:22.957Z,7.43
2022-09-27T05:00:24.344Z,7.44
2022-09-27T05:03:25.729Z,7.36
2022-09-27T05:06:27.121Z,7.33
2022-09-27T05:09:28.483Z,7.26
2022-09-27T05:12:29.838Z,7.23
2022-09-27T05:15:31.226Z,7.18
2022-09-27T05:18:33.510Z,7.13
2022-09-27T05:21:34.887Z,7.11
2022-09-27T05:24:38.428Z,7.09
2022-09-27T05:27:39.878Z,7.09
2022-09-27T05:30:41.372Z,7.11
2022-09-27T05:33:42.873Z,7.10
2022-09-27T05:36:44.267Z,7.13
2022-09-27T05:39:46.215Z,7.16
2022-09-27T05:42:48.134Z,7.11
2022-09-27T05:45:50.324Z,7.10
2022-09-27T05:48:51.942Z,7.12
2022-09-27T05:51:53.342Z,7.12
2022-09-27T05:54:54.717Z,7.11
2022-09-27T05:58:00.008Z,7.11
2022-09-27T06:01:01.465Z,7.16
2022-09-27T06:04:03.309Z,7.16
2022-09-27T06:07:04.677Z,7.15
2022-09-27T06:10:06.374Z,7.14
2022-09-27T06:13:11.484Z,7.16
2022-09-27T06:16:12.980Z,7.15
2022-09-27T06:19:14.521Z,7.15
2022-09-27T06:22:15.928Z,7.15
2022-09-27T06:25:17.391Z,7.13
2022-09-27T06:28:18.898Z,7.07
2022-09-27T06:31:20.683Z,7.17
2022-09-27T06:34:22.129Z,7.19
2022-09-27T06:37:27.110Z,7.18
2022-09-27T06:40:28.680Z,7.15
2022-09-27T06:43:31.334Z,7.21
2022-09-27T06:46:32.901Z,7.14
2022-09-27T06:49:34.318Z,7.03
2022-09-27T06:52:37.139Z,7.08
2022-09-27T06:55:38.541Z,7.10
2022-09-27T06:58:58.296Z,7.25
2022-09-27T07:02:00.010Z,7.26
2022-09-27T07:05:01.818Z,7.28
2022-09-27T07:08:03.484Z,7.31
2022-09-27T07:11:05.460Z,7.38
2022-09-27T07:14:08.171Z,7.46
2022-09-27T07:17:09.572Z,7.51
2022-09-27T07:20:11.751Z,7.52
2022-09-27T07:23:13.196Z,7.61
2022-09-27T07:26:14.573Z,7.66
2022-09-27T07:29:16.730Z,7.65
2022-09-27T07:32:18.091Z,7.66
2022-09-27T07:35:19.507Z,7.83
2022-09-27T07:38:20.893Z,7.77
2022-09-27T07:41:22.290Z,7.82
2022-09-27T07:44:23.723Z,7.73
2022-09-27T07:47:25.324Z,7.81
2022-09-27T07:50:26.921Z,7.86
2022-09-27T07:53:28.441Z,7.88
2022-09-27T07:56:29.833Z,7.90
2022-09-27T07:59:31.251Z,7.96
2022-09-27T08:02:32.938Z,7.92
2022-09-27T08:05:35.053Z,7.82
2022-09-27T08:08:36.570Z,7.74
2022-09-27T08:11:37.950Z,7.82
2022-09-27T08:14:43.973Z,7.94
2022-09-27T08:17:46.537Z,7.98
2022-09-27T08:20:47.915Z,8.00
2022-09-27T08:23:49.323Z,8.12
2022-09-27T08:26:50.696Z,8.24
2022-09-27T08:29:52.176Z,8.36
2022-09-27T08:32:56.723Z,8.50
2022-09-27T08:35:58.092Z,8.47
2022-09-27T08:39:00.561Z,8.39
2022-09-27T08:42:01.889Z,8.46
2022-09-27T08:45:12.798Z,8.47
2022-09-27T08:48:14.202Z,8.50
2022-09-27T08:51:15.721Z,8.44
2022-09-27T08:54:20.159Z,8.44
2022-09-27T08:57:23.033Z,8.46
2022-09-27T09:00:24.538Z,8.61
2022-09-27T09:03:27.566Z,8.68
2022-09-27T09:06:30.000Z,8.72
2022-09-27T09:09:31.318Z,8.74
2022-09-27T09:12:47.778Z,8.65
2022-09-27T09:15:59.832Z,8.65
2022-09-27T09:19:19.986Z,8.76
2022-09-27T09:22:28.796Z,8.83
2022-09-27T09:25:52.684Z,8.87
2022-09-27T09:28:54.051Z,9.11
2022-09-27T09:32:01.452Z,8.92
2022-09-27T09:35:23.078Z,9.01
2022-09-27T09:38:27.341Z,9.28
2022-09-27T09:41:30.068Z,9.33
2022-09-27T09:44:39.165Z,9.57
2022-09-27T09:47:42.040Z,9.98
2022-09-27T09:50:44.752Z,10.44
2022-09-27T09:53:51.362Z,10.16
2022-09-27T09:56:56.367Z,10.06
2022-09-27T10:00:01.670Z,10.21
2022-09-27T10:03:03.076Z,10.51
2022-09-27T10:06:04.458Z,10.43
2022-09-27T10:09:05.818Z,10.00
2022-09-27T10:12:07.210Z,9.92
2022-09-27T10:15:28.846Z,9.88
2022-09-27T10:18:30.298Z,9.87
2022-09-27T10:21:31.662Z,9.79
2022-09-27T10:24:36.428Z,9.68
2022-09-27T10:27:39.285Z,9.80
2022-09-27T10:30:40.678Z,9.61
2022-09-27T10:33:52.138Z,9.67
2022-09-27T10:37:04.314Z,9.65
2022-09-27T10:40:16.554Z,9.48
2022-09-27T10:43:29.793Z,9.51
2022-09-27T10:46:32.885Z,9.41
2022-09-27T10:49:34.711Z,9.38
2022-09-27T10:52:36.155Z,9.24
2022-09-27T10:55:37.606Z,9.12
2022-09-27T10:58:39.056Z,9.06
2022-09-27T11:01:41.114Z,9.25
2022-09-27T11:04:42.500Z,9.35
2022-09-27T11:07:50.386Z,9.27
2022-09-27T11:11:01.056Z,9.07
2022-09-27T11:14:07.970Z,9.19
2022-09-27T11:17:12.078Z,9.20
2022-09-27T11:20:17.536Z,9.22
2022-09-27T11:23:18.869Z,9.17
2022-09-27T11:26:26.840Z,8.94
2022-09-27T11:29:38.729Z,8.82
2022-09-27T11:32:47.506Z,8.62
2022-09-27T11:35:53.150Z,8.60
2022-09-27T11:39:12.577Z,8.52
2022-09-27T11:42:20.244Z,8.56
2022-09-27T11:49:44.708Z,8.72
2022-09-27T11:52:57.032Z,8.78
2022-09-27T11:56:17.150Z,8.83
2022-09-27T11:59:37.716Z,8.87
2022-09-27T12:02:39.154Z,9.06
2022-09-27T12:05:57.456Z,9.10
2022-09-27T12:09:05.171Z,9.05
2022-09-27T12:12:10.317Z,9.03
2022-09-27T12:15:16.560Z,8.93
2022-09-27T12:18:22.993Z,8.88
2022-09-27T12:21:24.365Z,8.92
2022-09-27T12:24:25.821Z,8.78
2022-09-27T12:27:36.281Z,8.74
2022-09-27T12:30:41.837Z,8.90
2022-09-27T12:33:51.629Z,8.86
2022-09-27T12:37:13.248Z,9.09
2022-09-27T12:40:19.218Z,10.38
2022-09-27T12:43:21.043Z,11.64
2022-09-27T12:46:41.248Z,11.37
2022-09-27T12:49:42.682Z,11.96
2022-09-27T12:52:45.439Z,11.50
2022-09-27T12:55:47.162Z,10.89
2022-09-27T12:58:57.829Z,10.36
2022-09-27T13:02:19.241Z,10.07
2022-09-27T13:05:43.716Z,9.69
2022-09-27T13:09:03.638Z,9.48
2022-09-27T13:12:10.888Z,9.43
2022-09-27T13:15:17.480Z,9.17
2022-09-27T13:18:32.230Z,9.15
2022-09-27T13:21:51.587Z,9.13
2022-09-27T13:24:52.962Z,9.05
2022-09-27T13:27:54.491Z,8.88
2022-09-27T13:30:56.276Z,8.83
2022-09-27T13:33:57.795Z,8.52
2022-09-27T13:36:59.954Z,8.42
2022-09-27T13:40:11.291Z,8.29
2022-09-27T13:43:17.783Z,8.28
2022-09-27T13:46:20.625Z,8.34
2022-09-27T13:49:24.922Z,8.62
2022-09-27T13:52:36.453Z,10.26
2022-09-27T13:55:40.506Z,9.83
2022-09-27T13:58:42.889Z,8.96
2022-09-27T14:01:53.670Z,8.91
2022-09-27T14:04:55.266Z,8.96
2022-09-27T14:07:56.688Z,8.72
2022-09-27T14:10:58.203Z,8.71
2022-09-27T14:13:59.626Z,8.84
2022-09-27T14:17:01.016Z,8.78
2022-09-27T14:20:03.564Z,10.75
2022-09-27T14:23:04.963Z,11.99
2022-09-27T14:26:06.391Z,12.91
2022-09-27T14:29:15.684Z,12.17
2022-09-27T14:32:18.076Z,12.12
2022-09-27T14:35:41.580Z,11.96
2022-09-27T14:38:42.980Z,10.75
2022-09-27T14:41:44.775Z,9.86
2022-09-27T14:44:46.188Z,9.67
2022-09-27T14:47:48.436Z,9.46
2022-09-27T14:51:06.231Z,9.18
2022-09-27T14:54:18.911Z,9.05
2022-09-27T14:57:20.289Z,9.02
2022-09-27T15:00:31.349Z,8.93
2022-09-27T15:03:38.433Z,8.85
2022-09-27T15:06:43.479Z,8.79
2022-09-27T15:09:45.501Z,8.71
2022-09-27T15:12:48.286Z,8.72
2022-09-27T15:15:49.752Z,8.61
2022-09-27T15:18:59.659Z,8.68
2022-09-27T15:22:22.940Z,8.57
2022-09-27T15:25:34.810Z,8.46
2022-09-27T15:28:38.308Z,8.47
2022-09-27T15:31:39.821Z,8.34
2022-09-27T15:34:41.740Z,8.15
2022-09-27T15:37:43.616Z,8.04
2022-09-27T15:40:45.112Z,7.93
2022-09-27T15:43:47.205Z,7.90
2022-09-27T15:46:48.675Z,7.89
2022-09-27T15:49:50.161Z,7.85
2022-09-27T15:52:52.236Z,7.78
2022-09-27T15:55:53.632Z,7.84
2022-09-27T15:58:55.073Z,7.77
2022-09-27T16:01:57.192Z,7.60
2022-09-27T16:04:58.611Z,7.51
2022-09-27T16:08:00.077Z,7.49
2022-09-27T16:11:03.322Z,7.53
2022-09-27T16:14:04.781Z,7.55
2022-09-27T16:17:06.162Z,7.51
2022-09-27T16:20:07.699Z,7.49
2022-09-27T16:23:09.082Z,7.54
2022-09-27T16:26:10.541Z,7.59
2022-09-27T16:29:12.664Z,7.56
2022-09-27T16:32:14.085Z,7.54
2022-09-27T16:35:16.042Z,7.40
2022-09-27T16:38:17.779Z,7.38
2022-09-27T16:41:20.037Z,7.43
2022-09-27T16:44:21.400Z,7.48
2022-09-27T16:47:22.824Z,7.44
2022-09-27T16:50:42.798Z,7.33
2022-09-27T16:53:44.546Z,7.27
2022-09-27T16:56:45.911Z,7.35
2022-09-27T16:59:48.175Z,7.31
2022-09-27T17:02:49.826Z,7.32
2022-09-27T17:05:51.262Z,7.32
2022-09-27T17:08:52.649Z,7.36
2022-09-27T17:11:56.289Z,7.33
2022-09-27T17:14:57.772Z,7.29
2022-09-27T17:17:59.189Z,7.31
2022-09-27T17:21:01.895Z,7.26
2022-09-27T17:24:03.282Z,7.24
2022-09-27T17:27:04.698Z,7.20
2022-09-27T17:30:06.982Z,7.15
2022-09-27T17:33:08.446Z,7.15
2022-09-27T17:36:12.158Z,7.10
2022-09-27T17:39:14.146Z,7.11
2022-09-27T17:42:15.499Z,7.07
2022-09-27T17:45:16.878Z,7.07
2022-09-27T17:48:37.109Z,7.08
2022-09-27T17:51:38.937Z,7.06
2022-09-27T17:54:40.348Z,7.11
2022-09-27T17:57:41.856Z,7.17
2022-09-27T18:00:43.287Z,7.15
2022-09-27T18:03:44.728Z,7.03
2022-09-27T18:06:46.284Z,7.08
2022-09-27T18:09:47.710Z,7.15
2022-09-27T18:12:49.122Z,7.13
2022-09-27T18:15:58.571Z,7.14
2022-09-27T18:19:03.379Z,7.16
2022-09-27T18:22:04.737Z,7.18
2022-09-27T18:25:06.382Z,7.14
2022-09-27T18:28:07.767Z,7.08
2022-09-27T18:31:10.119Z,7.08
2022-09-27T18:34:11.557Z,7.03
2022-09-27T18:37:12.958Z,7.07
2022-09-27T18:40:14.577Z,7.09
2022-09-27T18:43:16.028Z,7.08
2022-09-27T18:46:35.147Z,7.06
2022-09-27T18:49:37.167Z,7.00
2022-09-27T18:52:38.580Z,6.99
2022-09-27T18:55:41.512Z,7.00
2022-09-27T18:58:43.171Z,7.00
2022-09-27T19:01:47.371Z,7.06
2022-09-27T19:04:48.856Z,7.01
2022-09-27T19:07:50.434Z,6.98
2022-09-27T19:10:51.837Z,6.89
2022-09-27T19:13:53.874Z,6.90
2022-09-27T19:16:55.262Z,6.96
2022-09-27T19:19:57.110Z,6.98
2022-09-27T19:22:58.499Z,6.98
2022-09-27T19:26:00.413Z,6.96
2022-09-27T19:29:01.814Z,6.97
2022-09-27T19:32:03.236Z,6.87
2022-09-27T19:35:04.899Z,6.82
2022-09-27T19:38:06.246Z,6.87
2022-09-27T19:41:08.200Z,6.87
2022-09-27T19:44:09.759Z,6.85
2022-09-27T19:47:11.190Z,6.83
2022-09-27T19:50:12.570Z,6.85
2022-09-27T19:53:13.975Z,6.82
2022-09-27T19:56:15.423Z,6.81
2022-09-27T19:59:16.814Z,6.82
2022-09-27T20:02:18.362Z,6.86
2022-09-27T20:05:19.845Z,6.90
2022-09-27T20:08:21.201Z,6.92
2022-09-27T20:11:22.949Z,6.92
2022-09-27T20:14:24.340Z,6.95
2022-09-27T20:17:25.682Z,6.94
2022-09-27T20:20:27.121Z,6.98
2022-09-27T20:23:29.264Z,6.98
2022-09-27T20:26:30.805Z,6.95
2022-09-27T20:29:32.942Z,7.02
2022-09-27T20:32:36.740Z,6.97
2022-09-27T20:35:38.193Z,6.91
2022-09-27T20:38:40.109Z,6.93
2022-09-27T20:41:42.159Z,6.89
2022-09-27T20:44:43.584Z,6.87
2022-09-27T20:47:44.931Z,6.90
2022-09-27T20:50:46.312Z,6.96
2022-09-27T20:53:51.173Z,7.02
2022-09-27T20:56:52.759Z,6.96
2022-09-27T20:59:54.163Z,6.96
2022-09-27T21:02:55.533Z,6.97
2022-09-27T21:05:57.248Z,6.91
2022-09-27T21:08:59.252Z,6.91
2022-09-27T21:12:00.752Z,6.95
2022-09-27T21:15:02.115Z,6.94
2022-09-27T21:18:03.515Z,6.89
2022-09-27T21:21:05.054Z,6.90
2022-09-27T21:24:06.458Z,6.87
2022-09-27T21:27:07.845Z,6.83
2022-09-27T21:30:09.561Z,6.94
2022-09-27T21:33:10.999Z,6.97
2022-09-27T21:36:12.474Z,6.93
2022-09-27T21:39:15.447Z,6.94
2022-09-27T21:42:16.827Z,7.09
2022-09-27T21:45:18.200Z,7.07
2022-09-27T21:48:19.589Z,7.08
2022-09-27T21:51:24.648Z,7.09
2022-09-27T21:54:26.048Z,7.08
2022-09-27T21:57:27.427Z,6.97
2022-09-27T22:00:28.908Z,7.06
2022-09-27T22:03:30.330Z,7.03
2022-09-27T22:06:32.193Z,7.02
2022-09-27T22:09:33.619Z,6.99
2022-09-27T22:12:35.055Z,6.94
2022-09-27T22:15:36.788Z,6.97
2022-09-27T22:18:38.168Z,7.03
2022-09-27T22:21:39.673Z,7.03
2022-09-27T22:24:41.075Z,7.09
2022-09-27T22:27:42.476Z,6.91
2022-09-27T22:30:43.943Z,7.00
2022-09-27T22:33:51.677Z,7.07
2022-09-27T22:36:53.070Z,7.03
2022-09-27T22:39:55.811Z,7.08
2022-09-27T22:42:57.856Z,7.10
2022-09-27T22:46:02.103Z,7.17
2022-09-27T22:49:03.616Z,7.16
2022-09-27T22:52:04.980Z,7.15
2022-09-27T22:55:06.582Z,7.16
2022-09-27T22:58:07.939Z,7.18
2022-09-27T23:01:16.936Z,7.22
2022-09-27T23:04:18.516Z,7.24
2022-09-27T23:07:19.968Z,7.26
2022-09-27T23:10:23.438Z,7.26
2022-09-27T23:13:24.821Z,7.31
2022-09-27T23:16:26.254Z,7.28
2022-09-27T23:19:27.670Z,7.29
2022-09-27T23:22:31.818Z,7.29
2022-09-27T23:25:33.205Z,7.30
2022-09-27T23:28:35.213Z,7.27
2022-09-27T23:31:36.634Z,7.28
2022-09-27T23:34:38.682Z,7.33
2022-09-27T23:37:40.261Z,7.28
2022-09-27T23:40:41.898Z,7.36
2022-09-27T23:43:43.373Z,7.41
2022-09-27T23:46:45.320Z,7.41
2022-09-27T23:49:46.756Z,7.45
2022-09-27T23:52:48.145Z,7.47
2022-09-27T23:55:59.607Z,7.46
2022-09-27T23:59:01.151Z,7.60
